Time;durP1;ratioP1;P1;durP2;ratioP2;P2;SDS_P1;SDS_P2;PMS_P1;PMS_P2;Temp;Humidity;BMP_temperature;BMP_pressure;BME280_temperature;BME280_humidity;BME280_pressure;Samples;Min_cycle;Max_cycle;Signal;HPM_P1;HPM_P2
2021/10/02 00:31:35;;;;;;;4.20;3.80;;;13.20;1.00;;;;;;5116374;28;20520;-54
2021/10/02 00:37:09;;;;;;;5.00;3.97;;;13.20;1.00;;;;;;5116407;28;20436;-55
2021/10/02 00:44:53;;;;;;;7.07;4.23;;;13.20;1.00;;;;;;5116313;28;20485;-56
2021/10/02 00:47:21;;;;;;;4.50;4.10;;;13.30;1.00;;;;;;5111484;28;20464;-56
2021/10/02 00:49:48;;;;;;;4.67;3.50;;;13.30;1.00;;;;;;5115064;28;20479;-56
2021/10/02 00:52:16;;;;;;;4.00;3.60;;;13.30;1.00;;;;;;5111132;28;20447;-56
2021/10/02 00:54:43;;;;;;;4.33;3.87;;;13.30;1.00;;;;;;5112093;28;20463;-56
2021/10/02 00:57:09;;;;;;;4.50;4.17;;;13.40;1.00;;;;;;5108168;28;20798;-56
2021/10/02 00:59:36;;;;;;;4.77;3.60;;;13.30;1.00;;;;;;5097402;28;20450;-56
2021/10/02 01:02:06;;;;;;;4.07;3.67;;;13.30;1.00;;;;;;5109822;28;20448;-55
2021/10/02 01:05:01;;;;;;;4.70;3.30;;;13.30;1.00;;;;;;5112619;28;20779;-55
2021/10/02 01:07:30;;;;;;;4.00;3.60;;;13.30;1.00;;;;;;5112390;28;20484;-55
2021/10/02 01:10:11;;;;;;;3.70;3.40;;;13.30;1.00;;;;;;5114659;28;20447;-56
2021/10/02 01:12:45;;;;;;;5.20;4.07;;;13.20;1.00;;;;;;5113918;28;20415;-54
2021/10/02 01:15:29;;;;;;;6.67;4.30;;;13.10;1.00;;;;;;5114965;28;20428;-55
2021/10/02 01:18:02;;;;;;;4.30;3.80;;;13.30;1.00;;;;;;5114689;28;20528;-55
2021/10/02 01:20:55;;;;;;;5.33;4.37;;;13.20;1.00;;;;;;5114291;28;20499;-55
2021/10/02 01:23:33;;;;;;;5.47;4.00;;;13.20;1.00;;;;;;5106458;28;20440;-56
2021/10/02 01:26:19;;;;;;;3.60;3.30;;;13.20;1.00;;;;;;5114292;28;20441;-55
2021/10/02 01:28:52;;;;;;;4.63;4.10;;;13.20;1.00;;;;;;5112366;28;20443;-55
2021/10/02 01:31:25;;;;;;;6.17;4.00;;;13.10;1.00;;;;;;5111277;28;20431;-55
2021/10/02 01:34:07;;;;;;;4.13;3.73;;;13.10;1.00;;;;;;5109204;28;20440;-55
2021/10/02 01:36:55;;;;;;;5.33;4.57;;;13.10;1.00;;;;;;5112734;28;20412;-56
2021/10/02 01:47:53;;;;;;;4.47;3.90;;;13.10;1.00;;;;;;5113413;28;20460;-55
2021/10/02 01:50:36;;;;;;;4.20;3.80;;;13.10;1.00;;;;;;5103689;28;20512;-56
2021/10/02 01:53:05;;;;;;;4.13;3.73;;;13.00;1.00;;;;;;5107707;28;20428;-56
2021/10/02 01:55:32;;;;;;;5.77;4.03;;;13.00;1.00;;;;;;5112194;28;20457;-56
2021/10/02 01:58:04;;;;;;;4.60;4.23;;;13.00;1.00;;;;;;5113766;28;20436;-55
2021/10/02 02:00:31;;;;;;;4.90;4.20;;;13.10;1.00;;;;;;5110266;28;20530;-55
2021/10/02 02:03:04;;;;;;;4.70;4.30;;;13.00;1.00;;;;;;5113543;28;20496;-55
2021/10/02 02:05:30;;;;;;;4.23;3.87;;;13.00;1.00;;;;;;5108658;28;20437;-55
2021/10/02 02:08:00;;;;;;;9.43;4.53;;;13.00;1.00;;;;;;5108411;28;20502;-54
2021/10/02 02:10:27;;;;;;;6.97;4.37;;;13.00;1.00;;;;;;5113401;28;20467;-56
2021/10/02 02:12:57;;;;;;;5.07;4.47;;;13.00;1.00;;;;;;5109747;28;20493;-55
2021/10/02 02:15:26;;;;;;;4.17;3.80;;;13.10;1.00;;;;;;5113184;28;20429;-54
2021/10/02 02:17:55;;;;;;;4.40;4.00;;;13.10;1.00;;;;;;5113151;28;20910;-56
2021/10/02 02:20:47;;;;;;;4.60;4.20;;;13.10;1.00;;;;;;5111492;28;20552;-56
2021/10/02 02:23:13;;;;;;;5.40;4.90;;;13.00;1.00;;;;;;5109784;28;20468;-56
2021/10/02 02:25:40;;;;;;;5.63;4.60;;;13.00;1.00;;;;;;5112628;28;20441;-57
2021/10/02 02:28:08;;;;;;;4.90;4.40;;;12.90;1.00;;;;;;5101596;28;20482;-56
2021/10/02 02:30:35;;;;;;;4.83;3.63;;;13.00;1.00;;;;;;5109838;28;20935;-56
2021/10/02 02:33:01;;;;;;;5.93;4.03;;;12.90;1.00;;;;;;5097203;28;20418;-55
2021/10/02 02:35:27;;;;;;;4.43;4.03;;;13.00;1.00;;;;;;5108363;28;20444;-55
2021/10/02 02:37:53;;;;;;;5.60;4.30;;;13.00;1.00;;;;;;5108821;28;20762;-56
2021/10/02 02:40:20;;;;;;;6.37;4.20;;;13.00;1.00;;;;;;5106904;28;20453;-56
2021/10/02 02:42:46;;;;;;;5.23;4.73;;;12.80;1.00;;;;;;5111498;28;20186;-55
2021/10/02 02:45:14;;;;;;;4.83;4.33;;;13.00;1.00;;;;;;5112564;28;20536;-55
2021/10/02 02:47:51;;;;;;;4.83;4.20;;;13.00;1.00;;;;;;5112388;27;20183;-55
2021/10/02 02:50:32;;;;;;;5.77;4.13;;;12.90;1.00;;;;;;5108971;28;20512;-54
2021/10/02 02:53:06;;;;;;;4.60;4.20;;;13.00;1.00;;;;;;5111039;28;20479;-55
2021/10/02 02:55:44;;;;;;;6.80;4.33;;;13.00;1.00;;;;;;5106748;28;20444;-56
2021/10/02 02:58:10;;;;;;;4.90;3.90;;;13.00;1.00;;;;;;5108723;28;20429;-56
2021/10/02 03:00:50;;;;;;;4.87;4.20;;;13.00;1.00;;;;;;5109396;28;20521;-55
2021/10/02 03:03:24;;;;;;;7.87;4.20;;;13.00;1.00;;;;;;5107531;28;20195;-55
2021/10/02 03:05:50;;;;;;;6.73;3.87;;;13.00;1.00;;;;;;5107082;28;20448;-55
2021/10/02 03:08:18;;;;;;;5.40;4.90;;;13.00;1.00;;;;;;5111227;28;20949;-55
2021/10/02 03:10:50;;;;;;;5.20;4.40;;;13.10;1.00;;;;;;5111114;28;20591;-55
2021/10/02 03:13:19;;;;;;;6.40;4.07;;;13.10;1.00;;;;;;5109132;28;20470;-55
2021/10/02 03:15:47;;;;;;;4.13;3.83;;;13.10;1.00;;;;;;5112176;28;20765;-55
2021/10/02 03:18:15;;;;;;;5.10;4.27;;;13.10;1.00;;;;;;5110959;28;20836;-55
2021/10/02 03:20:42;;;;;;;5.47;3.97;;;13.10;1.00;;;;;;5111514;28;20432;-55
2021/10/02 03:23:09;;;;;;;4.40;4.00;;;13.00;1.00;;;;;;5111614;27;20443;-55
2021/10/02 03:25:34;;;;;;;7.17;4.30;;;13.10;1.00;;;;;;5109674;28;20583;-55
2021/10/02 03:28:03;;;;;;;5.20;4.50;;;13.20;1.00;;;;;;5111391;28;20532;-55
2021/10/02 03:30:30;;;;;;;4.67;4.17;;;13.10;1.00;;;;;;5110852;28;20699;-55
2021/10/02 03:32:56;;;;;;;4.97;4.47;;;13.10;1.00;;;;;;5110164;28;20525;-55
2021/10/02 03:35:23;;;;;;;6.47;4.50;;;13.10;1.00;;;;;;5093967;28;20937;-56
2021/10/02 03:37:49;;;;;;;4.60;3.90;;;13.00;1.00;;;;;;5106760;28;20540;-54
2021/10/02 03:40:19;;;;;;;3.93;3.60;;;13.00;1.00;;;;;;5106889;28;20806;-54
2021/10/02 03:42:50;;;;;;;4.50;3.67;;;13.00;1.00;;;;;;5110772;28;20456;-55
2021/10/02 03:45:17;;;;;;;5.10;4.40;;;13.10;1.00;;;;;;5101616;28;20478;-55
2021/10/02 03:47:43;;;;;;;5.10;3.73;;;13.00;1.00;;;;;;5110833;28;20434;-55
2021/10/02 03:50:10;;;;;;;6.97;4.33;;;13.00;1.00;;;;;;5110763;28;20480;-56
2021/10/02 03:52:36;;;;;;;5.70;5.17;;;13.00;1.00;;;;;;5110329;28;20289;-55
2021/10/02 03:55:07;;;;;;;5.40;4.83;;;13.00;1.00;;;;;;5092465;28;20453;-56
2021/10/02 03:57:32;;;;;;;7.70;4.90;;;13.00;1.00;;;;;;5113577;28;20891;-55
2021/10/02 03:59:58;;;;;;;4.47;4.03;;;13.00;1.00;;;;;;5112254;28;20445;-55
2021/10/02 04:02:23;;;;;;;5.63;4.80;;;13.00;1.00;;;;;;5093311;28;20278;-55
2021/10/02 04:04:50;;;;;;;5.03;4.10;;;13.00;1.00;;;;;;5113767;28;20637;-54
2021/10/02 04:07:15;;;;;;;5.60;4.07;;;13.00;1.00;;;;;;5117919;27;20179;-55
2021/10/02 04:09:41;;;;;;;10.60;4.83;;;13.00;1.00;;;;;;5116686;28;20491;-55
2021/10/02 04:12:07;;;;;;;4.87;4.13;;;13.00;1.00;;;;;;5117113;28;20246;-55
2021/10/02 04:14:33;;;;;;;5.23;4.37;;;13.00;1.00;;;;;;5115160;28;20228;-55
2021/10/02 04:16:59;;;;;;;6.97;5.00;;;13.00;1.00;;;;;;5112917;28;20170;-56
2021/10/02 04:19:25;;;;;;;4.60;4.30;;;13.00;1.00;;;;;;5115951;28;20429;-55
2021/10/02 04:21:51;;;;;;;4.90;4.30;;;12.90;1.00;;;;;;5114657;28;20501;-55
2021/10/02 04:24:18;;;;;;;4.23;3.83;;;12.90;1.00;;;;;;5115098;27;20490;-56
2021/10/02 04:26:43;;;;;;;4.53;4.17;;;12.90;1.00;;;;;;5115589;28;20433;-55
2021/10/02 04:29:09;;;;;;;4.43;4.03;;;12.90;1.00;;;;;;5118670;28;20485;-56
2021/10/02 04:31:35;;;;;;;5.30;4.03;;;12.90;1.00;;;;;;5103894;28;20218;-54
2021/10/02 04:34:00;;;;;;;5.60;4.90;;;12.90;1.00;;;;;;5111434;28;20620;-55
2021/10/02 04:36:26;;;;;;;5.53;4.80;;;13.00;1.00;;;;;;5117212;28;20184;-54
2021/10/02 04:38:53;;;;;;;5.87;4.60;;;13.00;1.00;;;;;;5116417;28;20271;-56
2021/10/02 04:41:19;;;;;;;7.50;4.50;;;13.00;1.00;;;;;;5117435;28;20712;-55
2021/10/02 04:43:45;;;;;;;6.40;4.90;;;13.00;1.00;;;;;;5117177;28;20530;-55
2021/10/02 04:46:15;;;;;;;5.63;4.67;;;13.00;1.00;;;;;;5115421;28;20622;-55
2021/10/02 04:48:42;;;;;;;5.67;4.80;;;12.90;1.00;;;;;;5117053;28;20198;-55
2021/10/02 04:51:10;;;;;;;4.90;4.40;;;13.00;1.00;;;;;;5114262;28;20464;-55
2021/10/02 04:53:36;;;;;;;5.27;4.77;;;13.00;1.00;;;;;;5117345;28;20532;-55
2021/10/02 04:56:05;;;;;;;5.30;4.80;;;13.00;1.00;;;;;;5110078;28;20427;-55
2021/10/02 04:58:31;;;;;;;4.70;4.13;;;12.90;1.00;;;;;;5104681;28;20448;-56
2021/10/02 05:00:58;;;;;;;5.40;4.90;;;12.90;1.00;;;;;;5114714;28;20497;-55
2021/10/02 05:03:24;;;;;;;4.83;4.43;;;12.90;1.00;;;;;;5117685;28;20463;-55
2021/10/02 05:05:50;;;;;;;5.17;4.63;;;13.00;1.00;;;;;;5115350;28;20460;-55
2021/10/02 05:08:17;;;;;;;4.73;4.30;;;13.00;1.00;;;;;;5113218;27;20207;-55
2021/10/02 05:10:43;;;;;;;6.40;4.67;;;12.90;1.00;;;;;;5110830;28;20464;-55
2021/10/02 05:13:08;;;;;;;5.17;4.67;;;12.90;1.00;;;;;;5114395;28;20440;-55
2021/10/02 05:15:34;;;;;;;5.00;4.50;;;12.90;1.00;;;;;;5114454;28;20444;-55
2021/10/02 05:18:00;;;;;;;5.53;4.93;;;12.80;1.00;;;;;;5115415;28;20192;-56
2021/10/02 05:20:27;;;;;;;5.27;3.80;;;12.90;1.00;;;;;;5112981;28;20188;-55
2021/10/02 05:22:52;;;;;;;5.57;5.07;;;12.90;1.00;;;;;;5112484;28;20907;-57
2021/10/02 05:25:18;;;;;;;8.73;5.40;;;12.90;1.00;;;;;;5112562;28;20546;-55
2021/10/02 05:27:43;;;;;;;4.90;4.50;;;12.90;1.00;;;;;;5108050;28;20191;-54
2021/10/02 05:30:09;;;;;;;4.27;3.77;;;13.00;1.00;;;;;;5111542;28;20214;-55
2021/10/02 05:32:35;;;;;;;5.90;5.30;;;12.90;1.00;;;;;;5113444;28;20284;-55
2021/10/02 05:35:00;;;;;;;6.30;5.00;;;12.90;1.00;;;;;;5105903;28;20196;-55
2021/10/02 05:37:26;;;;;;;6.47;5.10;;;13.00;1.00;;;;;;5105298;28;20548;-56
2021/10/02 05:39:52;;;;;;;6.57;4.53;;;13.00;1.00;;;;;;5101458;28;20179;-54
2021/10/02 05:42:17;;;;;;;5.93;4.73;;;13.10;1.00;;;;;;5113643;28;20190;-56
2021/10/02 05:44:43;;;;;;;9.80;4.97;;;13.10;1.00;;;;;;5111297;28;20194;-56
2021/10/02 05:47:09;;;;;;;5.70;5.10;;;13.10;1.00;;;;;;5113554;28;20195;-55
2021/10/02 05:49:35;;;;;;;5.57;4.80;;;13.10;1.00;;;;;;5111383;28;20207;-55
2021/10/02 05:52:01;;;;;;;5.67;4.50;;;13.00;1.00;;;;;;5103299;28;20235;-55
2021/10/02 05:54:26;;;;;;;5.17;4.67;;;13.00;1.00;;;;;;5113641;28;20411;-55
2021/10/02 05:56:52;;;;;;;5.30;4.50;;;13.10;1.00;;;;;;5111037;28;20204;-54
2021/10/02 05:59:17;;;;;;;6.43;5.33;;;13.10;1.00;;;;;;5113627;28;20668;-55
2021/10/02 06:01:43;;;;;;;5.00;4.57;;;13.00;1.00;;;;;;5112448;28;20610;-56
2021/10/02 06:04:08;;;;;;;8.67;4.93;;;13.00;1.00;;;;;;5104473;28;20289;-56
2021/10/02 06:06:34;;;;;;;5.50;5.00;;;13.00;1.00;;;;;;5112409;28;20642;-55
2021/10/02 06:08:59;;;;;;;7.57;5.20;;;13.00;1.00;;;;;;5101181;28;20643;-56
2021/10/02 06:11:25;;;;;;;6.10;5.07;;;13.10;1.00;;;;;;5098538;28;20207;-56
2021/10/02 06:13:51;;;;;;;4.90;4.50;;;13.10;1.00;;;;;;5113226;28;20233;-56
2021/10/02 06:16:17;;;;;;;5.47;4.77;;;13.20;1.00;;;;;;5106814;28;20251;-57
2021/10/02 06:18:43;;;;;;;4.97;4.57;;;13.20;1.00;;;;;;5109767;28;20183;-56
2021/10/02 06:21:11;;;;;;;5.50;4.50;;;13.20;1.00;;;;;;5112804;28;20449;-56
2021/10/02 06:23:37;;;;;;;5.63;4.77;;;13.30;1.00;;;;;;5110145;28;20455;-55
2021/10/02 06:26:03;;;;;;;5.67;5.07;;;13.30;1.00;;;;;;5105500;28;20827;-55
2021/10/02 06:28:29;;;;;;;6.87;4.80;;;13.40;1.00;;;;;;5107447;28;20437;-56
2021/10/02 06:30:55;;;;;;;6.90;5.00;;;13.30;1.00;;;;;;5109425;28;20223;-56
2021/10/02 06:33:20;;;;;;;6.67;5.47;;;13.40;1.00;;;;;;5111542;28;20436;-56
2021/10/02 06:35:46;;;;;;;5.23;4.73;;;13.50;1.00;;;;;;5113215;28;20193;-55
2021/10/02 06:38:11;;;;;;;4.70;4.30;;;13.60;1.00;;;;;;5112980;28;20193;-55
2021/10/02 06:40:40;;;;;;;5.50;4.80;;;13.50;1.00;;;;;;5106666;28;20490;-55
2021/10/02 06:43:06;;;;;;;6.03;5.43;;;13.60;1.00;;;;;;5097430;28;20187;-56
2021/10/02 06:45:32;;;;;;;5.70;5.03;;;13.70;1.00;;;;;;5111485;28;20872;-55
2021/10/02 06:47:57;;;;;;;5.10;4.60;;;13.70;1.00;;;;;;5112740;28;20479;-56
2021/10/02 06:50:23;;;;;;;5.27;4.77;;;13.80;1.00;;;;;;5112434;28;20673;-56
2021/10/02 06:52:49;;;;;;;6.87;4.80;;;13.80;1.00;;;;;;5112637;28;20221;-55
2021/10/02 06:55:14;;;;;;;5.00;4.50;;;13.80;1.00;;;;;;5111437;28;20180;-55
2021/10/02 06:57:40;;;;;;;5.93;5.33;;;13.90;1.00;;;;;;5107969;28;20183;-55
2021/10/02 07:00:06;;;;;;;6.03;5.37;;;14.00;1.00;;;;;;5109833;28;20192;-55
2021/10/02 07:02:31;;;;;;;6.17;5.57;;;14.10;1.00;;;;;;5112531;28;20188;-55
2021/10/02 07:04:57;;;;;;;5.90;4.97;;;14.20;1.00;;;;;;5094855;28;20539;-57
2021/10/02 07:07:22;;;;;;;9.23;4.50;;;14.20;1.00;;;;;;5110837;28;20202;-57
2021/10/02 07:09:48;;;;;;;4.80;4.40;;;14.30;1.00;;;;;;5107712;28;20181;-57
2021/10/02 07:12:14;;;;;;;5.77;5.17;;;14.60;1.00;;;;;;5106400;27;20230;-57
2021/10/02 07:14:40;;;;;;;8.60;5.30;;;14.80;1.00;;;;;;5105631;28;20261;-58
2021/10/02 07:17:06;;;;;;;5.47;5.07;;;14.80;1.00;;;;;;5109449;28;20452;-57
2021/10/02 07:19:31;;;;;;;5.80;5.20;;;14.90;1.00;;;;;;5108054;28;20231;-56
2021/10/02 07:21:57;;;;;;;7.20;5.30;;;15.10;1.00;;;;;;5108820;28;20448;-57
2021/10/02 07:24:22;;;;;;;9.63;5.47;;;15.20;1.00;;;;;;5095903;28;20323;-58
2021/10/02 07:26:48;;;;;;;5.80;5.30;;;15.40;1.00;;;;;;5108013;28;20206;-57
2021/10/02 07:29:14;;;;;;;6.37;5.10;;;15.60;1.00;;;;;;5109358;28;20177;-57
2021/10/02 07:31:40;;;;;;;5.80;5.30;;;15.90;1.00;;;;;;5109213;28;20931;-58
2021/10/02 07:34:05;;;;;;;5.50;4.97;;;16.00;1.00;;;;;;5109043;28;20665;-56
2021/10/02 07:36:31;;;;;;;6.20;5.60;;;16.00;1.00;;;;;;5113126;28;20589;-55
2021/10/02 07:38:56;;;;;;;5.63;4.67;;;16.10;1.00;;;;;;5113059;28;20642;-55
2021/10/02 07:41:24;;;;;;;5.30;4.80;;;16.10;1.00;;;;;;5112922;28;20189;-55
2021/10/02 07:43:59;;;;;;;6.07;5.43;;;16.00;1.00;;;;;;5112684;28;20190;-55
2021/10/02 07:46:26;;;;;;;6.53;5.50;;;16.00;1.00;;;;;;5112938;28;20416;-54
2021/10/02 07:48:53;;;;;;;6.67;5.33;;;16.10;1.00;;;;;;5112720;28;20493;-55
2021/10/02 07:51:20;;;;;;;6.70;6.07;;;16.10;1.00;;;;;;5112485;28;20497;-55
2021/10/02 07:53:46;;;;;;;6.17;5.67;;;16.20;1.00;;;;;;5112745;28;20529;-55
2021/10/02 07:56:12;;;;;;;5.83;5.23;;;16.10;1.00;;;;;;5112633;28;20535;-55
2021/10/02 07:58:38;;;;;;;6.97;6.37;;;16.10;1.00;;;;;;5112560;28;20528;-55
2021/10/02 08:01:04;;;;;;;6.50;5.27;;;16.10;1.00;;;;;;5111972;28;20186;-54
2021/10/02 08:03:29;;;;;;;10.53;5.27;;;16.20;1.00;;;;;;5112233;28;20508;-55
2021/10/02 08:05:55;;;;;;;5.00;4.60;;;16.30;1.00;;;;;;5107053;28;20224;-55
2021/10/02 08:08:21;;;;;;;5.77;5.27;;;16.50;1.00;;;;;;5093625;28;20193;-55
2021/10/02 08:10:49;;;;;;;7.00;5.30;;;16.60;1.00;;;;;;5112372;28;20462;-55
2021/10/02 08:13:15;;;;;;;6.00;5.40;;;16.60;1.00;;;;;;5112150;28;20409;-55
2021/10/02 08:15:44;;;;;;;6.37;5.73;;;16.60;1.00;;;;;;5109482;28;20483;-55
2021/10/02 08:18:14;;;;;;;5.87;5.33;;;16.70;1.00;;;;;;5112248;28;20401;-54
2021/10/02 08:20:40;;;;;;;5.50;5.10;;;16.80;1.00;;;;;;5112042;28;20418;-54
2021/10/02 08:23:07;;;;;;;6.03;5.47;;;16.90;1.00;;;;;;5106520;28;20440;-55
2021/10/02 08:25:35;;;;;;;6.47;5.87;;;16.80;1.00;;;;;;5111691;28;20461;-56
2021/10/02 08:28:04;;;;;;;6.37;5.30;;;16.80;1.00;;;;;;5110699;28;20782;-56
2021/10/02 08:30:30;;;;;;;6.70;6.00;;;16.80;1.00;;;;;;5107901;28;20543;-55
2021/10/02 08:32:57;;;;;;;5.80;5.20;;;16.70;1.00;;;;;;5111609;28;20464;-55
2021/10/02 08:35:23;;;;;;;8.13;5.40;;;16.60;1.00;;;;;;5112044;28;20417;-54
2021/10/02 08:37:48;;;;;;;7.63;6.83;;;16.70;1.00;;;;;;5109112;28;20905;-55
2021/10/02 08:40:15;;;;;;;6.20;5.60;;;16.70;1.00;;;;;;5110769;28;20189;-56
2021/10/02 08:42:43;;;;;;;7.50;5.60;;;16.60;1.00;;;;;;5109354;28;20683;-56
2021/10/02 08:45:10;;;;;;;6.60;6.00;;;16.70;1.00;;;;;;5112531;28;20455;-55
2021/10/02 08:47:39;;;;;;;11.03;6.30;;;16.80;1.00;;;;;;5115435;27;20417;-55
2021/10/02 08:50:06;;;;;;;6.23;5.63;;;17.00;1.00;;;;;;5115090;28;20442;-56
2021/10/02 08:52:32;;;;;;;6.00;5.50;;;17.40;1.00;;;;;;5113638;28;20851;-55
2021/10/02 08:55:01;;;;;;;6.07;5.47;;;18.10;1.00;;;;;;5095373;28;20406;-56
2021/10/02 08:57:27;;;;;;;5.50;4.70;;;18.60;1.00;;;;;;5105007;28;20470;-55
2021/10/02 08:59:55;;;;;;;7.63;5.80;;;19.10;1.00;;;;;;5098023;28;20441;-55
2021/10/02 09:02:22;;;;;;;5.00;4.60;;;19.20;1.00;;;;;;5113211;28;20421;-56
2021/10/02 09:04:49;;;;;;;5.67;5.00;;;19.20;1.00;;;;;;5115468;28;20438;-55
2021/10/02 09:07:19;;;;;;;6.13;5.50;;;19.20;1.00;;;;;;5114534;28;20451;-55
2021/10/02 09:09:45;;;;;;;8.50;6.07;;;19.50;1.00;;;;;;5115125;28;20546;-56
2021/10/02 09:12:11;;;;;;;6.60;6.00;;;19.60;1.00;;;;;;5115052;28;20533;-56
2021/10/02 09:14:38;;;;;;;6.53;4.77;;;19.70;1.00;;;;;;5115448;28;20523;-56
2021/10/02 09:17:04;;;;;;;4.90;4.47;;;20.00;1.00;;;;;;5115660;28;20427;-56
2021/10/02 09:19:32;;;;;;;6.33;5.23;;;20.20;1.00;;;;;;5115109;28;20769;-56
2021/10/02 09:22:07;;;;;;;5.87;4.97;;;20.30;1.00;;;;;;5115114;28;20476;-55
2021/10/02 09:24:35;;;;;;;6.20;5.10;;;20.20;1.00;;;;;;5114693;28;20419;-56
2021/10/02 09:27:01;;;;;;;5.00;4.30;;;20.10;1.00;;;;;;5114817;28;20429;-55
2021/10/02 09:29:36;;;;;;;4.90;4.50;;;20.00;1.00;;;;;;5108092;28;20492;-56
2021/10/02 09:32:04;;;;;;;5.90;4.10;;;19.80;1.00;;;;;;5114975;28;20965;-56
2021/10/02 09:34:30;;;;;;;5.30;4.60;;;19.70;1.00;;;;;;5114486;28;20415;-56
2021/10/02 09:36:56;;;;;;;4.93;4.53;;;19.80;1.00;;;;;;5114966;28;20929;-56
2021/10/02 09:39:40;;;;;;;5.00;4.60;;;19.80;1.00;;;;;;5105052;28;20179;-56
2021/10/02 09:42:19;;;;;;;5.70;4.10;;;20.00;1.00;;;;;;5109108;28;20471;-56
2021/10/02 09:44:45;;;;;;;6.80;4.30;;;20.30;1.00;;;;;;5106179;28;20900;-56
2021/10/02 09:47:17;;;;;;;5.13;4.50;;;20.50;1.00;;;;;;5114751;28;20506;-56
2021/10/02 09:49:46;;;;;;;5.47;4.47;;;20.40;1.00;;;;;;5114601;28;20202;-55
2021/10/02 09:52:34;;;;;;;4.73;4.33;;;20.20;1.00;;;;;;5073953;28;20448;-55
2021/10/02 09:55:12;;;;;;;5.03;4.63;;;20.00;1.00;;;;;;5073580;28;20438;-55
2021/10/02 09:57:41;;;;;;;7.07;4.17;;;19.80;1.00;;;;;;5073451;28;20469;-55
2021/10/02 10:00:10;;;;;;;5.87;4.27;;;19.80;1.00;;;;;;5073520;28;21011;-56
2021/10/02 10:02:40;;;;;;;5.60;4.40;;;20.00;1.00;;;;;;5073318;28;20411;-55
2021/10/02 10:05:08;;;;;;;4.00;3.60;;;20.20;1.00;;;;;;5073593;28;20439;-55
2021/10/02 10:07:33;;;;;;;4.10;3.70;;;20.30;1.00;;;;;;5071734;28;20473;-55
2021/10/02 10:10:10;;;;;;;4.03;3.73;;;20.20;1.00;;;;;;5073270;28;20910;-55
2021/10/02 10:12:38;;;;;;;4.60;4.10;;;20.00;1.00;;;;;;5073757;28;20655;-55
2021/10/02 10:15:06;;;;;;;5.20;4.37;;;19.80;1.00;;;;;;5073856;28;20412;-56
2021/10/02 10:17:32;;;;;;;4.07;3.67;;;19.80;1.00;;;;;;5073528;28;20439;-56
2021/10/02 10:20:08;;;;;;;3.83;3.43;;;20.10;1.00;;;;;;5073586;28;20572;-56
2021/10/02 10:22:33;;;;;;;5.13;4.13;;;20.60;1.00;;;;;;5073872;28;20486;-56
2021/10/02 10:25:04;;;;;;;4.80;4.00;;;21.00;1.00;;;;;;5073243;28;20491;-55
2021/10/02 10:27:46;;;;;;;4.27;3.57;;;21.20;1.00;;;;;;5073555;28;20495;-56
2021/10/02 10:30:21;;;;;;;5.57;4.40;;;21.30;1.00;;;;;;5073295;28;20450;-55
2021/10/02 10:33:06;;;;;;;6.10;3.80;;;21.40;1.00;;;;;;5073316;28;20435;-55
2021/10/02 10:35:35;;;;;;;5.80;4.63;;;21.50;1.00;;;;;;5073057;28;20431;-55
2021/10/02 10:38:02;;;;;;;5.57;4.40;;;21.60;1.00;;;;;;5072530;28;20423;-56
2021/10/02 10:40:28;;;;;;;4.10;3.70;;;21.60;1.00;;;;;;5072774;28;20902;-56
2021/10/02 10:42:54;;;;;;;6.37;4.17;;;21.70;1.00;;;;;;5072653;28;20429;-56
2021/10/02 10:45:21;;;;;;;4.47;3.93;;;21.90;1.00;;;;;;5072778;28;20778;-55
2021/10/02 10:47:47;;;;;;;5.40;3.87;;;21.90;1.00;;;;;;5072829;28;20491;-54
2021/10/02 10:50:12;;;;;;;4.10;3.70;;;22.10;1.00;;;;;;5079677;28;20521;-57
2021/10/02 10:52:41;;;;;;;6.10;4.00;;;22.20;1.00;;;;;;5113204;28;20408;-56
2021/10/02 10:55:18;;;;;;;4.63;4.10;;;22.30;1.00;;;;;;5110610;28;20175;-56
2021/10/02 10:57:46;;;;;;;3.43;3.13;;;22.10;1.00;;;;;;5110252;28;20407;-56
2021/10/02 11:00:37;;;;;;;5.57;3.93;;;22.10;1.00;;;;;;5113270;28;20945;-55
2021/10/02 11:03:04;;;;;;;4.00;3.60;;;22.00;1.00;;;;;;5113334;28;20460;-55
2021/10/02 11:05:36;;;;;;;4.33;3.93;;;22.10;1.00;;;;;;5111761;28;20422;-56
2021/10/02 11:08:22;;;;;;;4.00;3.70;;;22.20;1.00;;;;;;5112964;28;20420;-56
2021/10/02 11:10:53;;;;;;;4.30;3.70;;;22.30;1.00;;;;;;5113090;28;20434;-56
2021/10/02 11:13:26;;;;;;;3.93;3.63;;;22.40;1.00;;;;;;5113339;28;20490;-55
2021/10/02 11:15:53;;;;;;;4.77;3.47;;;22.50;1.00;;;;;;5113085;28;20391;-57
2021/10/02 11:18:47;;;;;;;4.07;3.67;;;22.40;1.00;;;;;;5112709;28;20418;-56
2021/10/02 11:21:15;;;;;;;4.60;4.07;;;22.50;1.00;;;;;;5092796;28;20420;-55
2021/10/02 11:24:00;;;;;;;5.23;3.30;;;22.60;1.00;;;;;;5111467;28;20437;-56
2021/10/02 11:26:28;;;;;;;8.70;4.10;;;22.40;1.00;;;;;;5106285;28;20444;-56
2021/10/02 11:29:03;;;;;;;3.20;2.80;;;22.40;1.00;;;;;;5098711;28;20403;-56
2021/10/02 11:31:30;;;;;;;3.67;3.37;;;22.50;1.00;;;;;;5112958;28;20531;-56
2021/10/02 11:33:58;;;;;;;4.37;3.40;;;22.60;1.00;;;;;;5112872;28;20797;-56
2021/10/02 11:36:30;;;;;;;4.60;3.93;;;22.80;1.00;;;;;;5112745;28;20406;-56
2021/10/02 11:39:15;;;;;;;6.10;3.73;;;22.80;1.00;;;;;;5113096;28;20503;-56
2021/10/02 11:41:54;;;;;;;4.53;3.27;;;22.80;1.00;;;;;;5092532;28;20493;-56
2021/10/02 11:44:44;;;;;;;4.47;4.07;;;22.70;1.00;;;;;;5107147;28;20560;-56
2021/10/02 11:47:25;;;;;;;4.20;3.60;;;22.70;1.00;;;;;;5112640;28;20900;-55
2021/10/02 11:50:09;;;;;;;4.50;4.10;;;22.80;1.00;;;;;;5112625;28;20443;-57
2021/10/02 11:52:44;;;;;;;3.70;3.40;;;22.90;1.00;;;;;;5112417;28;20479;-57
2021/10/02 11:55:40;;;;;;;4.40;4.00;;;22.90;1.00;;;;;;5112379;28;20403;-55
2021/10/02 11:58:11;;;;;;;3.80;3.50;;;23.00;1.00;;;;;;5112473;28;20761;-56
2021/10/02 12:01:00;;;;;;;3.43;3.10;;;23.20;1.00;;;;;;5112614;28;21071;-56
2021/10/02 12:03:33;;;;;;;3.50;3.20;;;23.40;1.00;;;;;;5112373;28;20403;-56
2021/10/02 12:06:01;;;;;;;3.40;3.10;;;23.40;1.00;;;;;;5112326;28;20968;-56
2021/10/02 12:08:28;;;;;;;5.27;3.33;;;23.50;1.00;;;;;;5112230;28;20832;-56
2021/10/02 12:11:07;;;;;;;4.13;3.37;;;23.50;1.00;;;;;;5112572;28;20466;-56
2021/10/02 12:13:33;;;;;;;4.27;3.47;;;23.50;1.00;;;;;;5112305;28;20428;-56
2021/10/02 12:16:16;;;;;;;4.20;3.43;;;23.40;1.00;;;;;;5112521;28;20421;-56
2021/10/02 12:18:45;;;;;;;4.20;3.80;;;23.30;1.00;;;;;;5115152;28;20432;-56
2021/10/02 12:21:27;;;;;;;6.03;3.13;;;23.20;1.00;;;;;;5116516;28;20833;-56
2021/10/02 12:23:57;;;;;;;3.60;3.30;;;23.30;1.00;;;;;;5116829;27;20945;-56
2021/10/02 12:26:24;;;;;;;4.47;3.33;;;23.30;1.00;;;;;;5116501;28;20505;-56
2021/10/02 12:28:58;;;;;;;4.23;3.93;;;23.30;1.00;;;;;;5116466;27;20406;-56
2021/10/02 12:31:42;;;;;;;4.13;3.23;;;23.30;1.00;;;;;;5098166;28;20488;-57
2021/10/02 12:34:23;;;;;;;8.33;3.30;;;23.40;1.00;;;;;;5116288;28;20503;-57
2021/10/02 12:37:13;;;;;;;3.63;3.33;;;23.50;1.00;;;;;;5116037;28;20473;-56
2021/10/02 12:39:43;;;;;;;3.27;2.97;;;23.60;1.00;;;;;;5106099;28;20850;-56
2021/10/02 12:42:11;;;;;;;4.20;2.70;;;23.60;1.00;;;;;;5116220;28;20426;-57
2021/10/02 12:44:40;;;;;;;4.33;3.00;;;23.70;1.00;;;;;;5115737;28;20491;-57
2021/10/02 12:47:08;;;;;;;20.07;13.43;;;23.70;1.00;;;;;;5115978;28;20501;-56
2021/10/02 12:49:41;;;;;;;5.63;4.90;;;23.80;1.00;;;;;;5115115;28;20455;-56
2021/10/02 12:52:07;;;;;;;3.20;2.70;;;23.70;1.00;;;;;;5115748;27;20478;-56
2021/10/02 12:54:33;;;;;;;3.20;2.90;;;23.80;1.00;;;;;;5115602;28;20849;-57
2021/10/02 12:57:03;;;;;;;5.83;2.90;;;24.00;1.00;;;;;;5115972;28;20519;-57
2021/10/02 13:00:04;;;;;;;3.10;2.80;;;24.10;1.00;;;;;;5115637;28;20220;-56
2021/10/02 13:02:30;;;;;;;3.83;2.93;;;24.30;1.00;;;;;;5101249;28;20408;-56
2021/10/02 13:04:56;;;;;;;2.80;2.60;;;24.20;1.00;;;;;;5115455;28;20418;-56
2021/10/02 13:07:49;;;;;;;3.23;2.97;;;24.20;1.00;;;;;;5115438;28;20403;-57
2021/10/02 13:10:19;;;;;;;3.37;2.70;;;24.30;1.00;;;;;;5115525;28;20411;-57
2021/10/02 13:12:52;;;;;;;3.77;2.93;;;24.40;1.00;;;;;;5115461;28;20501;-57
2021/10/02 13:15:22;;;;;;;2.63;2.43;;;24.50;1.00;;;;;;5115393;28;20422;-56
2021/10/02 13:18:05;;;;;;;3.10;2.80;;;24.40;1.00;;;;;;5115229;28;20486;-56
2021/10/02 13:20:41;;;;;;;2.77;2.53;;;24.40;1.00;;;;;;5115526;28;20411;-56
2021/10/02 13:23:19;;;;;;;4.43;2.97;;;24.40;1.00;;;;;;5097984;28;20924;-56
2021/10/02 13:26:16;;;;;;;5.17;3.60;;;24.20;1.00;;;;;;5115013;28;20486;-56
2021/10/02 13:29:01;;;;;;;4.33;3.67;;;24.10;1.00;;;;;;5114595;28;20955;-56
2021/10/02 13:31:30;;;;;;;4.40;3.70;;;23.90;1.00;;;;;;5115072;28;20445;-56
2021/10/02 13:34:05;;;;;;;5.40;3.70;;;23.80;1.00;;;;;;5115076;28;20808;-57
2021/10/02 13:36:39;;;;;;;4.90;4.20;;;23.80;1.00;;;;;;5114568;28;20426;-57
2021/10/02 13:39:16;;;;;;;8.20;3.93;;;23.80;1.00;;;;;;5102288;28;20414;-58
2021/10/02 13:41:47;;;;;;;4.77;4.27;;;23.70;1.00;;;;;;5114895;28;20410;-57
2021/10/02 13:44:23;;;;;;;5.27;3.93;;;23.50;1.00;;;;;;5098866;28;20411;-56
2021/10/02 13:46:49;;;;;;;5.80;3.67;;;23.20;1.00;;;;;;5114927;28;20440;-56
2021/10/02 13:49:15;;;;;;;4.30;3.90;;;23.10;1.00;;;;;;5114585;28;20608;-56
2021/10/02 13:51:42;;;;;;;9.40;4.43;;;23.10;1.00;;;;;;5114409;28;20446;-57
2021/10/02 13:54:08;;;;;;;7.70;4.67;;;23.00;1.00;;;;;;5114623;28;20181;-57
2021/10/02 13:56:38;;;;;;;7.07;4.00;;;23.10;1.00;;;;;;5097506;28;20437;-56
2021/10/02 13:59:05;;;;;;;7.93;5.00;;;23.10;1.00;;;;;;5114733;28;20984;-58